Time;durP1;ratioP1;P1;durP2;ratioP2;P2;SDS_P1;SDS_P2;PMS_P1;PMS_P2;Temp;Humidity;BMP_temperature;BMP_pressure;BME280_temperature;BME280_humidity;BME280_pressure;Samples;Min_cycle;Max_cycle;Signal;HPM_P1;HPM_P2
2022/06/01 00:01:15;;;;;;;3.35;2.55;;;16.50;92.80;;;16.51;100.00;100260.56;5013306;28;20096;-78
2022/06/01 00:03:43;;;;;;;5.38;2.60;;;16.50;92.80;;;16.52;100.00;100248.16;5026510;28;20052;-78
2022/06/01 00:06:11;;;;;;;4.10;3.03;;;16.50;92.60;;;16.36;100.00;100230.34;5050372;28;20049;-78
2022/06/01 00:08:40;;;;;;;5.00;2.83;;;16.40;92.70;;;16.34;100.00;100256.13;5009587;28;20056;-78
2022/06/01 00:11:08;;;;;;;3.05;2.60;;;16.40;93.10;;;16.20;100.00;100251.50;5015921;28;20113;-76
2022/06/01 00:13:37;;;;;;;4.53;2.60;;;16.30;92.90;;;16.20;100.00;100253.31;5020513;28;21680;-77
2022/06/01 00:16:04;;;;;;;3.53;2.63;;;16.30;92.70;;;16.17;100.00;100259.59;5038669;28;20049;-77
2022/06/01 00:18:32;;;;;;;3.63;3.10;;;16.20;92.90;;;16.25;100.00;100251.25;5031309;28;20056;-78
2022/06/01 00:21:00;;;;;;;3.47;2.80;;;16.20;92.80;;;16.23;100.00;100245.19;5046177;28;20045;-77
2022/06/01 00:23:27;;;;;;;5.43;3.20;;;16.10;92.90;;;16.24;100.00;100242.47;5013497;28;20426;-78
2022/06/01 00:25:54;;;;;;;3.72;2.42;;;16.10;93.00;;;16.18;100.00;100244.56;5029134;28;20052;-78
2022/06/01 00:28:22;;;;;;;3.90;2.50;;;16.10;92.90;;;16.20;100.00;100246.19;5032354;28;20116;-78
2022/06/01 00:30:49;;;;;;;3.40;2.55;;;16.10;92.70;;;16.07;100.00;100251.25;5027984;28;20045;-77
2022/06/01 00:33:16;;;;;;;3.72;2.67;;;16.10;92.90;;;15.95;100.00;100244.75;5014383;28;21082;-78
2022/06/01 00:35:43;;;;;;;4.07;2.78;;;16.10;93.10;;;15.96;100.00;100251.78;5014033;28;20153;-78
2022/06/01 00:38:10;;;;;;;3.67;2.63;;;16.00;92.90;;;15.90;100.00;100253.84;5014586;28;20045;-78
2022/06/01 00:40:39;;;;;;;4.30;2.88;;;18.10;93.70;;;15.92;100.00;100250.22;5022721;28;20056;-77
2022/06/01 00:43:39;;;;;;;3.45;3.00;;;15.90;93.20;;;15.99;100.00;100248.97;5014933;28;20060;-77
2022/06/01 00:46:06;;;;;;;;;;;15.90;93.00;;;15.91;100.00;100243.16;4997064;28;20081;-77
2022/06/01 00:48:34;;;;;;;3.33;2.90;;;16.10;93.20;;;15.82;100.00;100246.25;5014342;28;20456;-79
2022/06/01 00:51:02;;;;;;;3.35;2.60;;;15.40;94.70;;;15.59;100.00;100237.56;5021143;28;20140;-77
2022/06/01 00:53:37;;;;;;;3.28;2.63;;;15.60;93.80;;;15.47;100.00;100240.81;5030888;28;20076;-77
2022/06/01 00:56:11;;;;;;;4.55;2.53;;;15.50;94.00;;;15.37;100.00;100245.66;4999569;28;20065;-78
2022/06/01 00:58:42;;;;;;;5.18;3.05;;;15.40;93.80;;;15.39;100.00;100246.47;5015502;28;20160;-77
2022/06/01 01:01:19;;;;;;;4.97;3.20;;;18.00;94.70;;;15.35;100.00;100243.09;5014623;28;20060;-77
2022/06/01 01:03:53;;;;;;;3.88;3.08;;;15.40;94.20;;;15.36;100.00;100243.94;5029057;28;20060;-77
2022/06/01 01:06:33;;;;;;;3.92;2.63;;;15.30;94.50;;;15.24;100.00;100253.31;5007811;28;20565;-78
2022/06/01 01:09:01;;;;;;;3.80;2.47;;;;;;;15.27;100.00;100246.09;4990460;28;20140;-77
2022/06/01 01:11:54;;;;;;;3.55;3.03;;;15.20;94.20;;;15.21;100.00;100242.88;5027486;28;20061;-77
2022/06/01 01:14:26;;;;;;;2.95;2.35;;;15.20;94.20;;;15.24;100.00;100246.25;5013600;28;20362;-77
2022/06/01 01:16:54;;;;;;;7.15;3.10;;;15.60;94.40;;;15.15;100.00;100249.28;5029304;28;20056;-77
2022/06/01 01:19:36;;;;;;;4.35;2.88;;;15.80;94.90;;;15.35;100.00;100242.22;5045128;28;20104;-78
2022/06/01 01:22:14;;;;;;;3.58;2.63;;;15.20;94.90;;;15.16;100.00;100251.00;5031076;28;20057;-78
2022/06/01 01:25:16;;;;;;;4.18;2.97;;;15.30;94.90;;;15.08;100.00;100248.72;5011541;28;20053;-78
2022/06/01 01:27:51;;;;;;;5.80;3.10;;;15.20;95.10;;;15.04;100.00;100255.09;5021792;28;20038;-77
2022/06/01 01:30:37;;;;;;;3.80;2.47;;;15.10;95.10;;;15.14;100.00;100255.53;5029607;28;20060;-77
2022/06/01 01:33:20;;;;;;;6.03;2.80;;;15.10;95.30;;;15.16;100.00;100251.88;5027801;28;20050;-78
2022/06/01 01:35:53;;;;;;;5.60;2.80;;;15.10;95.30;;;15.08;100.00;100245.22;5024515;28;20099;-78
2022/06/01 01:38:50;;;;;;;3.60;2.78;;;15.10;95.40;;;15.03;100.00;100248.91;5031752;28;20673;-78
2022/06/01 01:41:49;;;;;;;3.53;2.92;;;15.70;95.50;;;15.06;100.00;100249.69;5021967;28;20139;-78
2022/06/01 01:44:25;;;;;;;3.40;2.42;;;15.10;95.40;;;15.15;100.00;100246.66;5045695;28;20917;-78
2022/06/01 01:46:55;;;;;;;4.47;2.83;;;15.00;95.50;;;15.04;100.00;100247.13;5027925;28;20046;-78
2022/06/01 01:49:32;;;;;;;5.78;3.67;;;15.00;95.70;;;15.05;100.00;100245.31;5048844;28;20225;-78
2022/06/01 01:52:06;;;;;;;7.07;3.10;;;15.20;95.90;;;15.15;100.00;100254.59;5016539;28;20121;-78
2022/06/01 01:54:57;;;;;;;4.50;2.65;;;15.40;98.30;;;15.17;100.00;100256.25;5034993;28;20055;-78
2022/06/01 01:58:38;;;;;;;3.58;2.88;;;14.80;98.30;;;15.07;100.00;100256.75;5010036;28;20064;-77
2022/06/01 02:01:53;;;;;;;4.38;2.80;;;14.80;98.40;;;15.11;100.00;100247.72;4945311;28;20055;-79
2022/06/01 02:08:06;;;;;;;3.28;2.83;;;15.20;98.80;;;15.00;100.00;100250.84;4965486;28;20084;-78
2022/06/01 02:13:21;;;;;;;4.47;3.03;;;14.80;95.80;;;14.98;100.00;100252.69;4961491;28;20061;-79
2022/06/01 02:15:52;;;;;;;4.07;3.20;;;15.00;96.00;;;15.07;100.00;100254.94;4945885;28;20086;-80
2022/06/01 02:18:30;;;;;;;3.20;2.90;;;15.40;97.90;;;15.16;100.00;100253.66;4961619;28;20046;-79
2022/06/01 02:21:06;;;;;;;5.38;3.00;;;15.00;96.00;;;15.21;100.00;100246.34;4956337;28;20047;-79
2022/06/01 02:23:34;;;;;;;5.45;2.72;;;15.10;96.00;;;15.23;100.00;100246.31;4961465;28;20676;-78
2022/06/01 02:26:02;;;;;;;4.03;3.15;;;15.10;99.00;;;15.09;100.00;100245.13;4968804;28;20066;-80
2022/06/01 02:28:30;;;;;;;3.53;2.88;;;;;;;15.19;100.00;100234.13;4965983;28;20091;-80
2022/06/01 02:30:58;;;;;;;5.32;3.15;;;15.10;95.80;;;15.23;100.00;100241.00;5001189;28;20069;-81
2022/06/01 02:33:32;;;;;;;4.00;3.47;;;15.10;95.90;;;15.27;100.00;100238.16;5009352;28;20050;-79
2022/06/01 02:36:03;;;;;;;5.03;3.00;;;15.20;96.10;;;15.28;100.00;100233.69;5029402;28;21306;-80
2022/06/01 02:38:39;;;;;;;4.07;3.50;;;15.20;96.10;;;15.30;100.00;100231.84;5014681;28;20598;-79
2022/06/01 02:42:25;;;;;;;3.38;3.08;;;;;;;15.34;100.00;100237.84;5011694;28;20466;-79
2022/06/01 02:43:54;;;;;;;3.90;3.10;;;15.10;98.80;;;15.34;100.00;100230.78;5024370;28;20049;-77
2022/06/01 02:46:22;;;;;;;3.67;3.22;;;15.00;98.80;;;15.34;100.00;100230.78;5013192;28;20152;-78
2022/06/01 02:48:51;;;;;;;3.53;2.88;;;;;;;15.31;100.00;100233.56;5005586;28;20041;-79
2022/06/01 02:51:19;;;;;;;4.75;3.67;;;15.20;95.50;;;15.27;100.00;100235.50;5047552;28;20041;-77
2022/06/01 02:53:46;;;;;;;3.75;3.20;;;;;;;15.24;100.00;100237.41;5024193;28;20050;-79
2022/06/01 02:56:16;;;;;;;5.35;3.42;;;15.20;95.60;;;15.11;100.00;100242.44;5029625;28;20105;-78
2022/06/01 02:58:43;;;;;;;3.75;3.40;;;15.10;95.80;;;14.96;100.00;100239.53;5009043;28;20037;-80
2022/06/01 03:01:11;;;;;;;4.18;2.95;;;;;;;14.82;100.00;100244.56;5030576;28;20049;-79
2022/06/01 03:03:39;;;;;;;5.35;3.00;;;;;;;14.79;100.00;100244.72;5038369;28;20041;-79
2022/06/01 03:06:08;;;;;;;3.30;2.97;;;;;;;14.65;100.00;100254.06;5016916;28;20072;-78
2022/06/01 03:08:35;;;;;;;4.10;2.85;;;;;;;14.65;100.00;100251.44;5027822;28;20049;-79
2022/06/01 03:11:03;;;;;;;3.72;3.08;;;;;;;14.71;100.00;100256.47;5031609;28;20044;-79
2022/06/01 03:13:30;;;;;;;3.95;2.85;;;;;;;14.66;100.00;100253.16;5048961;28;20059;-77
2022/06/01 03:15:58;;;;;;;3.83;3.28;;;;;;;14.67;100.00;100254.88;5033342;28;20050;-78
2022/06/01 03:18:25;;;;;;;4.45;3.15;;;;;;;14.60;100.00;100256.91;5031134;28;20045;-78
2022/06/01 03:20:53;;;;;;;3.50;3.20;;;;;;;14.56;100.00;100255.34;5027210;28;20047;-78
2022/06/01 03:23:20;;;;;;;5.53;3.83;;;;;;;14.52;100.00;100253.75;5046030;28;20144;-78
2022/06/01 03:25:48;;;;;;;3.70;3.20;;;;;;;14.57;100.00;100257.06;5031848;28;20052;-78
2022/06/01 03:28:15;;;;;;;5.15;3.13;;;;;;;14.68;100.00;100261.88;5032317;28;20045;-78
2022/06/01 03:30:43;;;;;;;4.13;2.92;;;;;;;14.75;100.00;100265.16;5029552;28;20049;-76
2022/06/01 03:33:13;;;;;;;4.03;3.38;;;14.70;97.10;;;14.70;100.00;100251.25;5026535;28;20046;-78
2022/06/01 03:35:41;;;;;;;5.00;3.55;;;;;;;14.81;100.00;100258.75;4998342;28;20115;-77
2022/06/01 03:38:08;;;;;;;3.78;3.22;;;14.70;97.00;;;14.82;100.00;100265.75;5015181;28;20144;-77
2022/06/01 03:40:37;;;;;;;7.32;3.70;;;15.70;97.60;;;14.85;100.00;100261.19;5010310;28;20109;-79
2022/06/01 03:43:06;;;;;;;5.88;3.50;;;14.70;97.40;;;14.73;100.00;100251.13;5024308;28;20046;-79
2022/06/01 03:48:21;;;;;;;6.03;3.90;;;14.70;97.60;;;14.73;100.00;100251.97;5033599;28;20045;-77
2022/06/01 03:50:49;;;;;;;8.98;3.40;;;14.70;97.20;;;14.69;100.00;100245.06;5006226;28;20136;-76
2022/06/01 03:53:16;;;;;;;5.45;3.03;;;14.70;97.20;;;14.57;100.00;100253.53;5047642;28;20038;-79
2022/06/01 03:55:43;;;;;;;4.90;3.67;;;15.40;97.70;;;14.58;100.00;100248.19;5030482;28;20454;-78
2022/06/01 03:58:17;;;;;;;4.22;3.30;;;14.60;97.40;;;14.58;100.00;100245.53;5012600;28;20134;-80
2022/06/01 04:00:45;;;;;;;3.67;3.15;;;15.90;97.60;;;14.54;100.00;100254.53;5021024;28;20068;-78
2022/06/01 04:03:13;;;;;;;4.35;3.33;;;17.70;98.00;;;14.57;100.00;100248.22;5030433;28;20057;-80
2022/06/01 04:05:40;;;;;;;7.63;3.45;;;14.60;97.30;;;14.61;100.00;100245.41;5029264;28;20061;-79
2022/06/01 04:08:08;;;;;;;7.13;3.60;;;14.90;97.30;;;14.54;100.00;100248.38;5013338;28;20072;-78
2022/06/01 04:10:38;;;;;;;3.55;3.15;;;16.00;97.40;;;14.61;100.00;100257.78;5031713;28;20045;-78
2022/06/01 04:13:05;;;;;;;4.35;3.60;;;14.50;97.20;;;14.62;100.00;100272.75;5031039;28;20045;-78
2022/06/01 04:15:32;;;;;;;6.47;4.22;;;14.50;97.40;;;14.60;100.00;100269.31;5036036;28;20052;-79
2022/06/01 04:17:59;;;;;;;6.38;3.75;;;14.60;97.40;;;14.60;100.00;100271.97;5014844;28;20047;-78
2022/06/01 04:20:26;;;;;;;4.05;3.65;;;14.50;97.10;;;14.61;100.00;100271.03;5022109;28;20703;-79
2022/06/01 04:22:54;;;;;;;7.15;4.07;;;14.50;97.30;;;14.64;100.00;100272.66;5014835;28;20042;-79
2022/06/01 04:25:22;;;;;;;5.18;3.55;;;14.50;97.30;;;14.65;100.00;100264.66;5025948;28;20050;-80
2022/06/01 04:27:50;;;;;;;4.40;3.90;;;14.60;97.50;;;14.62;100.00;100262.16;5025897;28;20075;-80
2022/06/01 04:30:18;;;;;;;4.25;3.70;;;14.50;97.40;;;14.57;100.00;100278.22;5004366;28;20049;-79
2022/06/01 04:32:48;;;;;;;5.43;3.58;;;14.50;97.50;;;14.61;100.00;100277.16;4999537;28;20042;-77
2022/06/01 04:35:17;;;;;;;5.17;3.60;;;14.50;97.60;;;14.65;100.00;100279.69;5025050;28;20045;-77
2022/06/01 04:37:44;;;;;;;5.63;3.97;;;14.60;97.80;;;14.64;100.00;100272.66;5017867;28;20045;-77
2022/06/01 04:40:13;;;;;;;6.75;4.60;;;14.60;97.80;;;14.69;100.00;100282.13;5007676;28;20048;-76
2022/06/01 04:42:41;;;;;;;6.88;3.50;;;14.60;97.70;;;14.75;100.00;100281.06;5035000;28;20063;-75
2022/06/01 04:45:13;;;;;;;4.55;3.40;;;14.60;97.50;;;14.82;100.00;100273.72;5017716;28;20433;-75
2022/06/01 04:47:40;;;;;;;5.78;3.83;;;14.60;97.50;;;14.76;100.00;100280.13;5024730;28;20058;-78
2022/06/01 04:50:09;;;;;;;5.22;3.80;;;16.50;97.90;;;14.85;100.00;100279.75;5019605;28;20060;-77
2022/06/01 04:52:37;;;;;;;5.25;3.80;;;14.60;97.50;;;14.79;100.00;100276.50;5023135;28;20452;-78
2022/06/01 04:55:07;;;;;;;9.48;4.28;;;14.60;97.30;;;14.79;100.00;100284.44;5025414;28;20050;-79
2022/06/01 04:57:36;;;;;;;;;;;14.70;97.30;;;14.87;100.00;100292.91;5024563;28;20053;-78
2022/06/01 05:00:04;;;;;;;5.75;3.60;;;14.70;97.30;;;14.84;100.00;100288.63;5027984;28;19975;-76
2022/06/01 05:02:31;;;;;;;9.73;4.68;;;14.70;97.10;;;14.82;100.00;100289.59;5019185;28;20041;-75
2022/06/01 05:04:59;;;;;;;5.85;4.13;;;14.70;97.10;;;14.80;100.00;100288.81;5027609;28;20065;-78
2022/06/01 05:07:26;;;;;;;6.13;3.83;;;14.70;97.10;;;14.77;100.00;100292.44;5022192;28;21017;-74
2022/06/01 05:09:53;;;;;;;8.35;4.10;;;15.10;96.90;;;14.80;100.00;100284.34;5037769;28;20127;-77
2022/06/01 05:12:20;;;;;;;4.47;3.90;;;15.40;97.20;;;14.90;100.00;100295.41;5017169;28;20043;-76
2022/06/01 05:14:47;;;;;;;5.72;3.78;;;14.90;97.60;;;14.95;100.00;100295.22;5003205;28;20125;-75
2022/06/01 05:17:14;;;;;;;10.82;4.10;;;14.80;97.70;;;14.95;100.00;100292.56;5021348;28;20152;-76
2022/06/01 05:19:43;;;;;;;7.25;3.65;;;14.70;97.80;;;14.99;100.00;100292.38;5018751;28;20045;-76
2022/06/01 05:22:10;;;;;;;4.13;3.30;;;15.00;97.60;;;15.00;100.00;100288.78;5002177;28;20050;-75
2022/06/01 05:24:37;;;;;;;5.85;3.55;;;15.20;97.30;;;14.93;100.00;100291.78;5019447;28;20053;-77
2022/06/01 05:27:05;;;;;;;6.75;4.57;;;15.40;97.50;;;14.96;100.00;100295.16;5020335;28;20148;-74
2022/06/01 05:29:35;;;;;;;5.75;3.47;;;14.80;97.50;;;15.02;100.00;100297.53;5020571;28;20045;-76
2022/06/01 05:32:02;;;;;;;4.15;3.75;;;14.90;97.40;;;15.12;100.00;100294.50;4980802;28;20140;-75
2022/06/01 05:34:29;;;;;;;5.22;4.05;;;14.90;97.50;;;15.02;100.00;100291.38;5016946;28;20049;-77
2022/06/01 05:36:57;;;;;;;5.07;4.50;;;16.40;97.80;;;15.10;100.00;100291.91;5020112;28;20141;-75
2022/06/01 05:39:24;;;;;;;4.55;4.05;;;15.20;97.30;;;15.11;100.00;100304.22;5019794;28;20050;-77
2022/06/01 05:41:51;;;;;;;5.95;3.78;;;15.10;97.10;;;15.13;100.00;100298.84;5017091;28;20045;-77
2022/06/01 05:44:18;;;;;;;4.93;4.35;;;15.10;97.20;;;15.21;100.00;100301.16;5037131;28;20049;-76
2022/06/01 05:46:45;;;;;;;7.32;4.95;;;15.20;97.10;;;15.24;100.00;100295.72;5014997;28;20052;-77
2022/06/01 05:49:13;;;;;;;6.72;4.57;;;15.20;97.10;;;15.23;100.00;100301.94;5000805;28;20056;-76
2022/06/01 05:51:40;;;;;;;8.52;3.63;;;17.70;97.70;;;15.29;100.00;100291.94;5016247;28;20054;-75
2022/06/01 05:54:07;;;;;;;5.15;3.92;;;15.30;96.50;;;15.41;100.00;100294.97;5019732;28;20041;-76
2022/06/01 05:56:34;;;;;;;5.80;4.03;;;15.30;96.70;;;15.43;100.00;100293.97;5020648;28;20068;-74
2022/06/01 05:59:02;;;;;;;4.35;3.63;;;15.30;96.40;;;15.54;100.00;100292.63;5017759;28;20384;-75
2022/06/01 06:01:29;;;;;;;4.40;3.53;;;15.40;96.50;;;15.56;100.00;100296.06;5019476;28;20049;-77
2022/06/01 06:03:57;;;;;;;4.15;3.53;;;15.40;96.40;;;15.63;100.00;100293.97;5019026;28;20788;-77
2022/06/01 06:06:25;;;;;;;4.63;3.20;;;15.50;96.30;;;15.62;100.00;100293.13;5005123;28;20050;-76
2022/06/01 06:09:09;;;;;;;6.32;3.40;;;15.50;96.00;;;15.82;100.00;100299.28;5024928;28;20076;-74
2022/06/01 06:11:40;;;;;;;8.45;4.10;;;15.60;96.10;;;15.85;100.00;100304.44;5043601;28;20045;-74
2022/06/01 06:14:08;;;;;;;5.18;3.70;;;15.60;95.90;;;15.87;100.00;100303.44;5018987;28;20088;-76
2022/06/01 06:16:45;;;;;;;3.45;2.78;;;15.70;95.80;;;16.01;100.00;100301.97;5021498;28;20045;-76
2022/06/01 06:19:16;;;;;;;6.00;3.40;;;15.80;95.60;;;16.04;100.00;100300.94;5010327;28;20045;-77
2022/06/01 06:21:44;;;;;;;6.22;3.30;;;15.90;95.30;;;16.08;100.00;100295.41;5034924;28;20493;-76
2022/06/01 06:24:16;;;;;;;6.55;2.90;;;16.30;95.20;;;16.14;100.00;100296.91;5019771;28;20049;-77
2022/06/01 06:26:43;;;;;;;5.78;2.70;;;16.00;95.00;;;16.18;100.00;100302.94;5019592;28;20049;-77
2022/06/01 06:29:13;;;;;;;5.55;2.33;;;16.90;95.00;;;16.24;100.00;100306.16;5020003;28;20042;-75
2022/06/01 06:31:42;;;;;;;3.17;2.40;;;16.00;94.50;;;16.23;100.00;100306.22;5037096;28;20046;-77
2022/06/01 06:34:15;;;;;;;4.13;2.80;;;16.10;94.40;;;16.29;100.00;100298.81;5018418;28;20117;-75
2022/06/01 06:36:44;;;;;;;4.50;3.10;;;16.10;94.50;;;16.44;100.00;100307.81;5020197;28;20089;-76
2022/06/01 06:39:12;;;;;;;7.38;2.97;;;17.20;94.20;;;16.53;100.00;100303.00;5004557;28;20691;-76
2022/06/01 06:41:39;;;;;;;3.85;2.90;;;16.30;93.90;;;16.57;100.00;100299.25;5020951;28;20049;-75
2022/06/01 06:44:07;;;;;;;3.63;2.90;;;16.30;93.40;;;16.62;99.33;100307.81;5021597;28;20459;-77
2022/06/01 06:46:34;;;;;;;4.32;3.00;;;16.40;93.30;;;16.75;90.72;100309.88;5020219;28;20064;-78
2022/06/01 06:49:01;;;;;;;3.63;2.33;;;16.50;92.30;;;16.81;91.47;100312.22;5022238;28;20053;-77
2022/06/01 06:51:34;;;;;;;5.78;2.17;;;16.60;92.40;;;16.91;83.72;100317.94;5021831;28;20159;-76
2022/06/01 06:54:01;;;;;;;5.43;2.35;;;;;;;16.89;77.27;100315.34;5005364;28;20099;-77
2022/06/01 06:56:28;;;;;;;4.95;2.78;;;16.60;94.10;;;17.01;83.92;100309.44;5023378;28;20083;-77
2022/06/01 06:58:56;;;;;;;3.35;2.20;;;16.90;94.80;;;17.07;87.81;100315.34;5007626;28;20144;-77
2022/06/01 07:01:24;;;;;;;5.25;2.50;;;16.60;94.60;;;17.09;90.80;100313.47;5013453;28;20055;-77
2022/06/01 07:03:52;;;;;;;2.65;2.15;;;;;;;17.18;93.47;100317.47;5017035;28;20041;-75
2022/06/01 07:06:23;;;;;;;6.28;3.10;;;16.90;91.80;;;17.25;95.07;100318.84;5020740;28;20081;-77
2022/06/01 07:08:54;;;;;;;6.25;2.90;;;17.00;92.20;;;17.33;88.76;100322.00;5019235;28;20092;-75
2022/06/01 07:11:28;;;;;;;4.57;2.78;;;17.10;91.70;;;17.42;87.14;100324.13;5036349;28;20065;-78
2022/06/01 07:13:57;;;;;;;5.50;2.95;;;17.10;91.50;;;17.44;84.13;100329.38;5018568;28;20089;-75
2022/06/01 07:16:28;;;;;;;3.80;2.40;;;17.20;91.10;;;17.53;82.56;100326.22;5024132;28;20096;-76
2022/06/01 07:18:58;;;;;;;4.10;2.90;;;17.20;90.90;;;17.54;78.48;100327.94;5010384;28;20597;-76
2022/06/01 07:21:28;;;;;;;5.18;2.80;;;17.30;90.60;;;17.55;77.36;100329.66;5024998;28;20054;-79
2022/06/01 07:23:58;;;;;;;5.85;2.88;;;17.30;90.20;;;17.55;75.57;100324.31;5002475;28;20050;-77
2022/06/01 07:26:31;;;;;;;8.30;2.33;;;17.40;90.00;;;17.55;75.21;100328.81;5028238;28;20045;-78
2022/06/01 07:28:58;;;;;;;5.40;2.30;;;17.40;89.60;;;17.63;74.77;100331.88;5023170;28;20054;-78
2022/06/01 07:31:26;;;;;;;3.08;2.28;;;17.40;89.80;;;17.64;72.64;100324.78;5025373;28;20106;-78
2022/06/01 07:33:53;;;;;;;5.75;2.45;;;17.40;89.10;;;17.72;72.63;100322.56;5025674;28;20561;-78
2022/06/01 07:36:21;;;;;;;4.35;2.80;;;17.60;89.00;;;17.80;72.69;100325.66;5017656;28;20220;-78
2022/06/01 07:44:44;;;;;;;3.55;2.90;;;17.60;87.90;;;17.96;76.85;100331.00;5020552;28;20048;-78
2022/06/01 07:47:12;;;;;;;7.03;3.08;;;17.70;89.60;;;18.04;74.74;100324.41;5021582;28;20124;-78
2022/06/01 07:49:59;;;;;;;4.13;2.67;;;18.10;89.40;;;18.12;73.75;100325.69;5011970;28;20045;-78
2022/06/01 07:52:47;;;;;;;4.13;2.30;;;17.80;89.10;;;18.30;70.37;100330.06;5023330;28;20145;-78
2022/06/01 07:55:14;;;;;;;5.38;2.30;;;18.20;88.60;;;18.35;69.68;100328.88;5021848;28;20045;-78
2022/06/01 07:57:41;;;;;;;3.75;2.50;;;18.10;88.10;;;18.42;64.76;100324.06;5026382;28;20080;-78
2022/06/01 08:00:09;;;;;;;6.22;3.15;;;18.10;86.70;;;18.46;64.20;100322.03;5015773;28;20069;-78
2022/06/01 08:02:40;;;;;;;4.70;2.08;;;18.10;86.40;;;18.45;60.62;100326.53;5026242;28;20855;-78
2022/06/01 08:05:09;;;;;;;4.80;2.38;;;18.20;85.00;;;18.53;61.51;100323.41;5008144;28;20046;-79
2022/06/01 08:07:36;;;;;;;4.30;2.20;;;18.20;85.10;;;18.60;55.64;100327.44;5024362;28;20054;-78
2022/06/01 08:10:05;;;;;;;5.15;2.35;;;18.30;82.60;;;18.64;57.64;100322.78;5015515;28;20493;-78
2022/06/01 08:15:20;;;;;;;4.22;2.60;;;18.40;84.50;;;18.81;56.34;100335.09;5034894;28;20037;-78
2022/06/01 08:17:57;;;;;;;5.43;2.30;;;18.50;82.50;;;18.92;56.86;100324.66;5011583;28;20488;-79
2022/06/01 08:20:28;;;;;;;4.65;2.80;;;18.90;82.80;;;18.89;55.63;100329.31;5029668;28;20449;-79
2022/06/01 08:22:57;;;;;;;3.25;2.65;;;17.90;81.50;;;18.85;53.82;100331.31;5019689;28;20093;-79
2022/06/01 08:25:28;;;;;;;3.40;2.10;;;18.70;80.40;;;18.96;54.95;100336.84;5024752;28;20045;-81
2022/06/01 08:27:59;;;;;;;2.40;1.90;;;18.70;81.20;;;18.96;55.71;100341.34;5008982;28;20049;-79
2022/06/01 08:30:30;;;;;;;3.80;2.20;;;18.70;81.50;;;19.11;56.14;100336.91;5010749;28;20045;-81
2022/06/01 08:32:58;;;;;;;4.13;2.40;;;18.70;81.50;;;19.40;55.05;100339.63;5018532;28;20044;-81
2022/06/01 08:35:40;;;;;;;5.05;2.72;;;18.90;81.90;;;19.19;52.24;100345.31;5042619;28;20140;-79
2022/06/01 08:38:08;;;;;;;6.05;2.50;;;19.00;79.10;;;19.09;51.72;100341.47;5028013;28;20045;-82
2022/06/01 08:41:03;;;;;;;5.55;2.75;;;19.00;78.30;;;19.28;54.22;100343.91;5026720;28;20076;-80
2022/06/01 08:43:41;;;;;;;3.17;2.33;;;19.00;79.60;;;19.09;50.95;100325.50;5002732;28;20444;-82
2022/06/01 08:46:11;;;;;;;5.03;1.92;;;19.00;78.10;;;19.22;52.49;100334.47;5038221;28;20926;-80
2022/06/01 08:48:53;;;;;;;4.68;2.30;;;19.00;78.50;;;19.32;51.86;100332.09;5024854;28;20768;-80
2022/06/01 08:51:26;;;;;;;3.53;1.80;;;19.00;78.60;;;19.65;51.17;100324.75;5027623;28;20049;-81
2022/06/01 08:53:55;;;;;;;4.28;2.10;;;19.10;78.20;;;19.89;50.04;100337.47;5009061;28;20037;-81
2022/06/01 08:57:16;;;;;;;3.38;1.60;;;19.40;77.90;;;20.09;47.17;100337.13;5020966;28;20065;-79
2022/06/01 09:00:04;;;;;;;3.80;2.25;;;19.60;76.60;;;19.76;46.65;100332.94;5033844;28;20033;-80
2022/06/01 09:03:11;;;;;;;3.08;2.13;;;19.70;73.50;;;19.73;46.50;100335.78;5020058;28;20083;-80
2022/06/01 09:06:01;;;;;;;4.75;1.90;;;19.70;73.20;;;19.74;46.49;100337.50;5035092;28;20148;-80
2022/06/01 09:09:17;;;;;;;3.87;2.60;;;19.60;73.00;;;19.92;46.88;100329.34;5033596;28;20119;-80
2022/06/01 09:11:46;;;;;;;3.65;2.10;;;19.60;74.20;;;20.07;48.46;100340.84;5004928;28;20066;-80
2022/06/01 09:14:27;;;;;;;5.10;2.20;;;19.70;74.80;;;20.15;45.10;100340.34;5032427;28;20055;-79
2022/06/01 09:16:56;;;;;;;3.38;1.85;;;19.90;71.30;;;20.31;45.04;100335.69;5024697;28;20103;-78
2022/06/01 09:22:38;;;;;;;3.77;2.37;;;20.00;70.70;;;20.35;47.19;100333.69;5024582;28;20037;-79
2022/06/01 09:25:17;;;;;;;4.57;1.85;;;20.00;73.10;;;20.59;47.33;100333.00;5027124;28;20033;-79
2022/06/01 09:27:53;;;;;;;2.70;2.00;;;20.10;73.40;;;20.52;46.61;100325.41;5020094;28;20068;-79
2022/06/01 09:30:42;;;;;;;4.40;2.10;;;20.20;72.40;;;20.54;45.42;100328.00;5024588;28;20477;-79
2022/06/01 09:33:31;;;;;;;6.53;2.80;;;20.30;71.00;;;20.70;46.04;100341.16;5010223;28;20152;-78
2022/06/01 09:36:07;;;;;;;4.15;2.40;;;20.40;71.80;;;20.60;44.92;100346.28;5017055;28;20053;-78
2022/06/01 09:39:01;;;;;;;7.18;2.15;;;20.40;70.30;;;20.69;45.15;100344.81;5021973;28;20049;-78
2022/06/01 09:41:36;;;;;;;4.85;2.13;;;20.40;70.50;;;20.82;45.16;100336.84;5020321;28;20046;-77
2022/06/01 09:44:10;;;;;;;3.67;2.10;;;20.40;70.30;;;21.02;45.06;100340.00;5022102;28;20045;-78
2022/06/01 09:46:40;;;;;;;6.78;2.10;;;20.60;70.60;;;20.79;44.47;100345.91;5033882;28;20069;-78
2022/06/01 09:49:31;;;;;;;3.25;2.00;;;20.60;69.30;;;20.81;44.96;100338.66;5023908;28;20477;-78
2022/06/01 09:52:12;;;;;;;7.05;2.33;;;20.60;69.90;;;20.71;44.85;100342.03;5022057;28;20083;-77
2022/06/01 09:54:52;;;;;;;4.93;2.10;;;20.60;69.30;;;20.78;45.46;100343.34;5018439;28;20046;-78
2022/06/01 09:57:37;;;;;;;2.72;2.15;;;20.60;69.90;;;20.94;44.87;100332.50;5014628;28;20746;-77
2022/06/01 10:06:31;;;;;;;3.20;1.95;;;20.70;68.10;;;21.05;43.86;100335.28;5023070;28;20053;-78
2022/06/01 10:09:18;;;;;;;3.35;2.05;;;20.80;68.10;;;21.32;44.05;100330.81;5026110;28;20498;-80
2022/06/01 10:11:48;;;;;;;2.97;2.22;;;20.90;68.50;;;21.33;44.10;100319.13;5023365;28;20479;-79
2022/06/01 10:14:40;;;;;;;4.22;2.75;;;20.90;68.60;;;21.61;43.11;100326.06;5021020;28;20128;-79
2022/06/01 10:17:32;;;;;;;4.90;2.08;;;21.10;67.80;;;21.70;42.96;100318.34;5014358;28;20414;-79
2022/06/01 10:20:14;;;;;;;2.72;2.00;;;21.30;67.40;;;21.78;41.96;100321.34;5016245;28;20049;-79
2022/06/01 10:22:56;;;;;;;3.53;2.20;;;21.40;66.10;;;21.83;41.46;100321.03;5029163;28;20091;-79
2022/06/01 10:25:39;;;;;;;3.53;1.90;;;21.60;65.40;;;21.99;40.89;100315.38;5028975;28;21078;-79
2022/06/01 10:28:22;;;;;;;3.28;1.83;;;18.70;63.00;;;22.02;41.00;100308.00;5029998;28;20057;-79
2022/06/01 10:31:42;;;;;;;2.00;1.50;;;19.80;63.70;;;22.15;40.81;100304.41;5038787;28;21017;-79
2022/06/01 10:34:38;;;;;;;3.17;1.65;;;21.80;64.70;;;22.32;40.02;100327.25;5026304;28;20056;-78
2022/06/01 10:37:23;;;;;;;3.17;1.48;;;21.90;63.60;;;22.32;37.15;100325.44;5026836;28;20072;-79
2022/06/01 10:40:58;;;;;;;2.80;1.30;;;22.00;59.70;;;22.53;36.93;100316.78;5044513;28;20103;-77
2022/06/01 10:43:41;;;;;;;4.47;1.70;;;22.10;59.10;;;22.77;36.38;100308.69;5008454;28;20049;-78
2022/06/01 10:46:23;;;;;;;2.00;1.42;;;22.40;58.70;;;22.88;35.87;100299.84;5019760;28;20075;-77
2022/06/01 10:49:22;;;;;;;6.43;1.73;;;22.50;58.10;;;23.03;35.60;100297.78;5033663;28;20049;-78
2022/06/01 10:52:12;;;;;;;3.53;1.30;;;22.60;57.60;;;23.05;35.45;100303.91;5025826;28;20041;-77
2022/06/01 10:54:57;;;;;;;3.60;1.60;;;22.80;57.00;;;23.31;35.09;100314.47;5028968;28;20091;-77
2022/06/01 10:57:25;;;;;;;4.93;1.30;;;22.90;56.80;;;23.21;34.35;100303.56;5025881;28;20100;-77
2022/06/01 10:59:52;;;;;;;3.60;1.40;;;23.00;55.50;;;23.25;34.07;100290.72;5027641;28;20045;-78
2022/06/01 11:03:20;;;;;;;8.30;1.90;;;23.00;54.90;;;23.27;34.14;100301.38;5024379;28;20061;-78
2022/06/01 11:06:19;;;;;;;2.63;1.38;;;23.10;54.40;;;23.57;34.18;100305.31;5023427;28;20049;-78
2022/06/01 11:09:19;;;;;;;2.25;1.38;;;23.10;54.80;;;23.45;33.80;100282.97;5027279;28;20045;-78
2022/06/01 11:12:33;;;;;;;2.08;1.00;;;23.30;54.40;;;23.73;33.46;100286.97;5027954;28;20048;-78